createdAt,value
2022-10-30T00:00:43.859Z,18.90
2022-10-30T00:11:18.945Z,19.40
2022-10-30T00:21:46.357Z,16.40
2022-10-30T00:32:13.839Z,19.10
2022-10-30T00:42:41.325Z,20.40
2022-10-30T00:53:12.135Z,21.80
2022-10-30T01:03:40.529Z,20.10
2022-10-30T01:14:11.315Z,23.60
2022-10-30T01:24:53.196Z,29.40
2022-10-30T01:35:25.271Z,26.20
2022-10-30T01:46:10.723Z,29.50
2022-10-30T01:56:46.204Z,33.10
2022-10-30T02:07:14.730Z,30.50
2022-10-30T02:17:42.754Z,29.20
2022-10-30T02:28:10.601Z,27.00
2022-10-30T02:38:38.497Z,27.30
2022-10-30T02:49:06.522Z,27.30
2022-10-30T02:59:34.489Z,26.20
2022-10-30T03:10:02.405Z,26.60
2022-10-30T03:20:30.388Z,28.60
2022-10-30T03:31:03.587Z,29.00
2022-10-30T03:41:31.758Z,30.70
2022-10-30T03:51:59.129Z,29.30
2022-10-30T04:02:26.447Z,33.70
2022-10-30T04:12:54.992Z,33.00
2022-10-30T04:23:23.279Z,23.60
2022-10-30T04:33:51.093Z,33.30
2022-10-30T04:44:18.402Z,28.80
2022-10-30T04:54:45.704Z,32.00
2022-10-30T05:05:13.181Z,30.90
2022-10-30T05:15:40.829Z,29.90
2022-10-30T05:26:08.248Z,27.70
2022-10-30T05:36:35.497Z,31.60
2022-10-30T05:47:02.763Z,28.10
2022-10-30T05:57:33.299Z,29.50
2022-10-30T06:08:00.569Z,30.20
2022-10-30T06:18:27.815Z,26.70
2022-10-30T06:28:55.160Z,23.90
2022-10-30T06:39:22.638Z,20.40
2022-10-30T06:49:49.905Z,21.10
2022-10-30T07:00:17.982Z,20.60
2022-10-30T07:10:45.451Z,23.50
2022-10-30T07:21:12.875Z,25.50
2022-10-30T07:31:49.558Z,27.80
2022-10-30T07:42:17.341Z,26.70
2022-10-30T07:52:44.721Z,23.40
2022-10-30T08:03:13.652Z,23.70
2022-10-30T08:13:41.166Z,20.00
2022-10-30T08:24:09.377Z,25.40
2022-10-30T08:34:36.628Z,18.10
2022-10-30T08:45:03.992Z,13.40
2022-10-30T08:55:31.469Z,12.20
2022-10-30T09:06:01.287Z,13.00
2022-10-30T09:16:28.681Z,9.40
2022-10-30T09:26:57.625Z,11.80
2022-10-30T09:37:25.150Z,11.30
2022-10-30T09:58:35.472Z,9.80
2022-10-30T10:09:09.165Z,10.00
2022-10-30T10:19:42.816Z,11.20
2022-10-30T10:30:16.828Z,10.40
2022-10-30T10:40:55.359Z,10.50
2022-10-30T10:51:28.060Z,8.60
2022-10-30T11:02:01.506Z,8.80
2022-10-30T11:12:33.868Z,7.60
2022-10-30T11:23:03.744Z,9.00
2022-10-30T11:33:31.614Z,10.80
2022-10-30T11:43:59.142Z,9.60
2022-10-30T11:54:27.714Z,11.90
2022-10-30T12:04:55.812Z,10.60
2022-10-30T12:15:26.657Z,12.00
2022-10-30T12:25:56.817Z,10.60
2022-10-30T12:36:28.554Z,10.50
2022-10-30T12:47:02.321Z,9.10
2022-10-30T12:57:34.372Z,10.10
2022-10-30T13:08:18.772Z,11.00
2022-10-30T13:18:46.168Z,9.20
2022-10-30T13:29:23.186Z,8.70
2022-10-30T13:40:02.997Z,9.40
2022-10-30T13:50:46.680Z,9.20
2022-10-30T14:01:24.095Z,9.80
2022-10-30T14:11:53.757Z,9.80
2022-10-30T14:22:26.693Z,8.40
2022-10-30T14:32:54.683Z,8.40
2022-10-30T14:43:31.940Z,8.30
2022-10-30T14:54:07.583Z,9.10
2022-10-30T15:04:46.779Z,7.20
2022-10-30T15:15:18.678Z,7.50
2022-10-30T15:25:51.633Z,9.50
2022-10-30T15:36:22.063Z,8.00
2022-10-30T15:46:51.928Z,9.10
2022-10-30T16:08:16.684Z,9.20
2022-10-30T16:18:44.911Z,10.90
2022-10-30T16:29:24.293Z,16.30
2022-10-30T16:39:54.265Z,13.60
2022-10-30T16:50:22.607Z,13.40
2022-10-30T17:00:55.784Z,16.80
2022-10-30T17:11:37.089Z,16.50
2022-10-30T17:22:11.216Z,16.20
2022-10-30T17:32:46.815Z,13.60
2022-10-30T17:43:15.779Z,13.00
2022-10-30T17:53:43.507Z,13.50
2022-10-30T18:14:48.269Z,14.20
2022-10-30T18:25:21.859Z,18.00
2022-10-30T18:35:49.380Z,13.70
2022-10-30T18:46:17.595Z,14.30
2022-10-30T18:56:45.116Z,12.00
2022-10-30T19:17:38.370Z,10.70
2022-10-30T19:28:06.020Z,11.70
2022-10-30T19:38:34.006Z,13.50
2022-10-30T19:49:01.374Z,12.30
2022-10-30T19:59:28.986Z,12.70
2022-10-30T20:09:56.354Z,10.60
2022-10-30T20:20:26.403Z,12.00
2022-10-30T20:30:54.223Z,11.80
2022-10-30T20:51:51.044Z,11.30
2022-10-30T21:02:18.404Z,12.00
2022-10-30T21:12:45.857Z,12.20
2022-10-30T21:23:13.734Z,11.40
2022-10-30T21:44:07.517Z,11.90
2022-10-30T21:54:34.943Z,10.30
2022-10-30T22:05:02.341Z,9.80
2022-10-30T22:15:29.718Z,8.60
2022-10-30T22:26:01.365Z,9.80
2022-10-30T22:36:30.948Z,8.80
2022-10-30T22:46:58.314Z,11.20
2022-10-30T22:57:25.698Z,13.50
2022-10-30T23:07:54.596Z,11.80
2022-10-30T23:18:21.963Z,11.40
2022-10-30T23:28:50.812Z,10.50
2022-10-30T23:39:19.748Z,10.70
2022-10-30T23:49:47.202Z,9.60
